createdAt,value
2019-06-07T00:01:35.238Z,18.50
2019-06-07T00:04:03.452Z,17.87
2019-06-07T00:06:31.648Z,16.13
2019-06-07T00:08:59.867Z,15.17
2019-06-07T00:11:28.059Z,20.53
2019-06-07T00:13:56.258Z,20.13
2019-06-07T00:16:24.455Z,16.13
2019-06-07T00:18:52.655Z,16.50
2019-06-07T00:22:12.144Z,19.93
2019-06-07T00:23:50.758Z,21.47
2019-06-07T00:26:21.311Z,16.93
2019-06-07T00:28:48.859Z,20.70
2019-06-07T00:31:22.262Z,21.73
2019-06-07T00:33:46.951Z,22.50
2019-06-07T00:36:17.661Z,18.07
2019-06-07T00:38:45.031Z,23.53
2019-06-07T00:41:15.008Z,25.17
2019-06-07T00:43:43.132Z,25.43
2019-06-07T00:46:14.429Z,23.00
2019-06-07T00:48:41.628Z,19.70
2019-06-07T00:51:11.262Z,21.23
2019-06-07T00:53:39.856Z,22.83
2019-06-07T00:56:08.074Z,21.67
2019-06-07T00:58:36.421Z,26.07
2019-06-07T01:01:04.896Z,21.37
2019-06-07T01:03:33.155Z,18.33
2019-06-07T01:06:01.358Z,20.23
2019-06-07T01:08:30.210Z,23.43
2019-06-07T01:10:58.755Z,21.43
2019-06-07T01:13:27.235Z,22.37
2019-06-07T01:15:55.509Z,23.73
2019-06-07T01:18:37.398Z,28.47
2019-06-07T01:20:53.622Z,29.07
2019-06-07T01:23:59.859Z,24.50
2019-06-07T01:25:51.920Z,21.93
2019-06-07T01:28:21.352Z,23.73
2019-06-07T01:30:51.003Z,22.07
2019-06-07T01:33:20.857Z,20.53
2019-06-07T01:35:49.331Z,19.53
2019-06-07T01:38:21.179Z,21.63
2019-06-07T01:40:47.419Z,22.60
2019-06-07T01:43:17.056Z,23.73
2019-06-07T01:45:45.275Z,20.87
2019-06-07T01:48:13.470Z,26.93
2019-06-07T01:50:41.681Z,30.77
2019-06-07T01:53:09.872Z,25.27
2019-06-07T01:55:38.074Z,23.60
2019-06-07T01:58:06.307Z,23.27
2019-06-07T02:00:34.503Z,24.10
2019-06-07T02:03:02.720Z,21.43
2019-06-07T02:05:32.447Z,22.37
2019-06-07T02:08:00.834Z,20.83
2019-06-07T02:10:33.174Z,22.50
2019-06-07T02:12:59.223Z,20.20
2019-06-07T02:15:30.707Z,23.30
2019-06-07T02:17:57.309Z,20.33
2019-06-07T02:20:28.123Z,22.80
2019-06-07T02:22:55.671Z,19.13
2019-06-07T02:25:49.555Z,17.37
2019-06-07T02:28:19.615Z,16.20
2019-06-07T02:30:40.673Z,18.70
2019-06-07T02:32:53.683Z,16.10
2019-06-07T02:35:25.596Z,17.23
2019-06-07T02:37:51.788Z,17.80
2019-06-07T02:40:19.978Z,16.13
2019-06-07T02:42:48.350Z,15.37
2019-06-07T02:45:16.715Z,16.50
2019-06-07T02:47:46.481Z,20.90
2019-06-07T02:50:14.749Z,17.87
2019-06-07T02:52:42.990Z,17.87
2019-06-07T02:55:12.022Z,17.03
2019-06-07T02:57:42.085Z,16.97
2019-06-07T03:00:40.372Z,17.13
2019-06-07T03:02:41.688Z,17.17
2019-06-07T03:05:10.467Z,15.17
2019-06-07T03:07:40.215Z,19.53
2019-06-07T03:10:11.274Z,17.70
2019-06-07T03:12:40.148Z,16.13
2019-06-07T03:15:08.348Z,15.77
2019-06-07T03:17:40.837Z,16.70
2019-06-07T03:20:13.383Z,19.77
2019-06-07T03:22:42.129Z,16.90
2019-06-07T03:25:10.389Z,19.10
2019-06-07T03:27:46.980Z,18.63
2019-06-07T03:30:35.884Z,22.17
2019-06-07T03:32:46.241Z,20.57
2019-06-07T03:35:08.416Z,27.53
2019-06-07T03:37:40.650Z,22.00
2019-06-07T03:40:06.586Z,19.60
2019-06-07T03:42:38.338Z,20.03
2019-06-07T03:45:06.233Z,20.97
2019-06-07T03:47:36.559Z,20.13
2019-06-07T03:50:05.499Z,19.57
2019-06-07T03:52:37.105Z,18.10
2019-06-07T03:55:04.559Z,18.57
2019-06-07T03:58:23.803Z,18.13
2019-06-07T04:00:03.177Z,17.00
2019-06-07T04:02:33.917Z,17.10
2019-06-07T04:05:01.343Z,17.13
2019-06-07T04:07:31.165Z,16.63
2019-06-07T04:09:59.418Z,18.63
2019-06-07T04:12:28.532Z,17.53
2019-06-07T04:14:56.794Z,19.47
2019-06-07T04:17:25.242Z,18.27
2019-06-07T04:19:53.427Z,17.40
2019-06-07T04:22:21.614Z,11.67
2019-06-07T04:24:49.821Z,9.63
2019-06-07T04:27:18.023Z,10.03
2019-06-07T04:30:05.798Z,11.07
2019-06-07T04:32:16.110Z,7.83
2019-06-07T04:34:44.288Z,7.23
2019-06-07T04:37:12.483Z,7.50
2019-06-07T04:39:44.911Z,7.60
2019-06-07T04:42:12.612Z,6.73
2019-06-07T04:44:42.778Z,6.67
2019-06-07T04:47:11.843Z,9.67
2019-06-07T04:49:43.839Z,6.40
2019-06-07T04:52:10.844Z,7.50
2019-06-07T04:54:45.570Z,6.00
2019-06-07T04:57:08.932Z,7.07
2019-06-07T05:02:07.243Z,6.67
2019-06-07T05:04:37.128Z,6.47
2019-06-07T05:07:05.339Z,7.50
2019-06-07T05:09:37.538Z,6.13
2019-06-07T05:12:03.541Z,7.50
2019-06-07T05:14:34.264Z,6.80
2019-06-07T05:17:01.628Z,7.73
2019-06-07T05:19:30.587Z,6.70
2019-06-07T05:22:04.306Z,7.33
2019-06-07T05:24:30.742Z,7.63
2019-06-07T05:26:59.211Z,6.83
2019-06-07T05:29:27.402Z,6.90
2019-06-07T05:31:55.763Z,7.67
2019-06-07T05:34:23.954Z,8.13
2019-06-07T05:37:10.437Z,6.80
2019-06-07T05:39:22.023Z,8.10
2019-06-07T05:41:50.232Z,7.90
2019-06-07T05:44:18.415Z,7.30
2019-06-07T05:46:47.594Z,7.73
2019-06-07T05:49:16.007Z,7.20
2019-06-07T05:51:45.073Z,8.03
2019-06-07T05:54:13.475Z,9.40
2019-06-07T05:56:43.261Z,7.77
2019-06-07T05:59:11.567Z,7.37
2019-06-07T06:01:53.474Z,7.73
2019-06-07T06:04:09.640Z,7.63
2019-06-07T06:06:39.589Z,7.07
2019-06-07T06:09:13.863Z,7.23
2019-06-07T06:11:50.753Z,7.63
2019-06-07T06:14:08.553Z,10.70
2019-06-07T06:16:37.223Z,9.50
2019-06-07T06:19:05.520Z,7.50
2019-06-07T06:21:33.696Z,7.10
2019-06-07T06:24:01.936Z,9.80
2019-06-07T06:26:30.367Z,7.13
2019-06-07T06:28:58.586Z,8.20
2019-06-07T06:31:26.771Z,7.57
2019-06-07T06:33:54.976Z,7.95
2019-06-07T06:36:23.248Z,9.35
2019-06-07T06:38:51.717Z,6.92
2019-06-07T06:41:21.114Z,9.83
2019-06-07T06:43:52.378Z,7.33
2019-06-07T06:46:37.428Z,7.25
2019-06-07T06:48:54.846Z,7.80
2019-06-07T06:51:19.422Z,9.28
2019-06-07T06:53:49.964Z,6.50
2019-06-07T06:56:17.831Z,6.45
2019-06-07T06:59:32.702Z,6.00
2019-06-07T07:01:16.175Z,7.70
2019-06-07T07:04:00.169Z,6.37
2019-06-07T07:06:25.690Z,8.88
2019-06-07T07:08:47.857Z,6.25
2019-06-07T07:11:14.475Z,5.97
2019-06-07T07:13:45.315Z,5.42
2019-06-07T07:16:12.558Z,5.67
2019-06-07T07:18:41.766Z,5.47
2019-06-07T07:21:10.004Z,6.97
2019-06-07T07:23:38.196Z,6.42
2019-06-07T07:26:06.392Z,6.33
2019-06-07T07:28:34.593Z,6.28
2019-06-07T07:31:02.772Z,5.70
2019-06-07T07:34:21.120Z,5.85
2019-06-07T07:36:22.698Z,6.00
2019-06-07T07:38:30.746Z,5.85
2019-06-07T07:41:13.884Z,5.15
2019-06-07T07:43:28.843Z,4.87
2019-06-07T07:46:02.398Z,5.00
2019-06-07T07:48:27.598Z,5.22
2019-06-07T07:51:00.488Z,5.12
2019-06-07T07:53:25.687Z,4.97
2019-06-07T07:55:59.667Z,5.45
2019-06-07T07:58:23.783Z,6.45
2019-06-07T08:01:04.732Z,4.30
2019-06-07T08:03:21.859Z,5.08
2019-06-07T08:05:52.055Z,5.28
2019-06-07T08:08:19.948Z,4.45
2019-06-07T08:10:51.734Z,4.03
2019-06-07T08:13:25.962Z,3.60
2019-06-07T08:15:52.394Z,3.55
2019-06-07T08:18:17.848Z,4.60
2019-06-07T08:21:04.996Z,3.80
2019-06-07T08:23:15.921Z,4.90
2019-06-07T08:25:44.202Z,4.12
2019-06-07T08:28:12.390Z,3.10
2019-06-07T08:30:53.252Z,4.08
2019-06-07T08:33:25.257Z,4.25
2019-06-07T08:38:29.778Z,3.50
2019-06-07T08:40:40.156Z,3.12
2019-06-07T08:43:19.610Z,5.03
2019-06-07T08:45:38.479Z,5.42
2019-06-07T08:48:26.745Z,3.70
2019-06-07T08:50:36.912Z,3.75
2019-06-07T08:53:12.346Z,3.47
2019-06-07T08:55:35.066Z,5.45
2019-06-07T08:58:08.161Z,5.28
2019-06-07T09:00:48.775Z,4.42
2019-06-07T09:03:06.974Z,4.28
2019-06-07T09:05:33.204Z,3.90
2019-06-07T09:08:25.979Z,4.33
2019-06-07T09:10:32.826Z,4.12
2019-06-07T09:13:07.628Z,5.33
2019-06-07T09:15:31.019Z,5.37
2019-06-07T09:20:36.871Z,3.47
2019-06-07T09:23:07.142Z,3.55
2019-06-07T09:25:30.554Z,4.70
2019-06-07T09:28:06.715Z,4.17
2019-06-07T09:30:44.453Z,4.75
2019-06-07T09:33:13.325Z,4.97
2019-06-07T09:35:41.581Z,3.58
2019-06-07T09:38:23.379Z,4.08
2019-06-07T09:40:39.770Z,4.62
2019-06-07T09:43:55.297Z,4.87
2019-06-07T09:45:37.929Z,3.87
2019-06-07T09:48:13.372Z,4.33
2019-06-07T09:50:36.042Z,3.92
2019-06-07T09:53:13.990Z,5.15
2019-06-07T09:55:34.294Z,4.40
2019-06-07T09:58:36.153Z,3.52
2019-06-07T10:00:40.962Z,3.95
2019-06-07T10:03:14.676Z,5.42
2019-06-07T10:05:32.630Z,3.22
2019-06-07T10:08:22.282Z,4.28
2019-06-07T10:12:59.531Z,3.35
2019-06-07T10:15:28.004Z,2.85
2019-06-07T10:17:56.213Z,3.80
2019-06-07T10:20:24.477Z,4.53
2019-06-07T10:22:52.689Z,4.10
2019-06-07T10:25:20.882Z,4.33
2019-06-07T10:27:49.071Z,3.62
2019-06-07T10:30:17.541Z,5.97
2019-06-07T10:32:45.947Z,3.42
2019-06-07T10:35:16.495Z,3.95
2019-06-07T10:37:44.031Z,3.65
2019-06-07T10:40:12.399Z,2.83
2019-06-07T10:42:40.590Z,3.60
2019-06-07T10:45:10.282Z,3.77
2019-06-07T10:47:38.914Z,3.15
2019-06-07T10:50:08.115Z,4.28
2019-06-07T10:52:36.631Z,3.62
2019-06-07T10:55:06.571Z,3.95
2019-06-07T10:57:35.065Z,3.12
2019-06-07T11:00:05.318Z,2.83
2019-06-07T11:02:33.587Z,3.50
2019-06-07T11:05:01.778Z,3.02
2019-06-07T11:07:29.990Z,3.30
2019-06-07T11:10:07.100Z,3.60
2019-06-07T11:12:28.107Z,4.12
2019-06-07T11:14:56.297Z,4.00
2019-06-07T11:17:24.496Z,4.40
2019-06-07T11:19:52.678Z,3.20
2019-06-07T11:22:20.893Z,4.55
2019-06-07T11:24:49.183Z,4.40
2019-06-07T11:27:18.993Z,4.10
2019-06-07T11:29:47.419Z,3.50
2019-06-07T11:32:15.687Z,4.35
2019-06-07T11:34:43.916Z,4.33
2019-06-07T11:37:13.863Z,3.85
2019-06-07T11:39:42.295Z,4.10
2019-06-07T11:42:11.959Z,4.58
2019-06-07T11:44:55.704Z,3.90
2019-06-07T11:47:10.473Z,4.80
2019-06-07T11:49:38.848Z,6.92
2019-06-07T11:52:07.348Z,3.72
2019-06-07T11:54:35.574Z,4.70
2019-06-07T11:57:04.263Z,4.53
2019-06-07T11:59:32.837Z,4.58
2019-06-07T12:02:01.144Z,4.97
2019-06-07T12:04:34.997Z,3.50
2019-06-07T12:06:59.618Z,3.80
2019-06-07T12:09:28.209Z,3.47
2019-06-07T12:11:56.433Z,3.95
2019-06-07T12:14:24.653Z,3.70
2019-06-07T12:16:52.840Z,4.72
2019-06-07T12:19:21.035Z,3.80
2019-06-07T12:21:49.239Z,3.42
2019-06-07T12:24:19.478Z,4.33
2019-06-07T12:26:47.323Z,4.10
2019-06-07T12:29:17.075Z,4.42
2019-06-07T12:31:45.525Z,4.50
2019-06-07T12:34:13.846Z,4.65
2019-06-07T12:36:42.211Z,3.92
2019-06-07T12:39:10.420Z,4.03
2019-06-07T12:41:38.613Z,5.35
2019-06-07T12:44:06.959Z,4.05
2019-06-07T12:46:35.142Z,4.53
2019-06-07T12:49:03.407Z,3.40
2019-06-07T12:51:31.609Z,3.58
2019-06-07T12:53:59.796Z,4.25
2019-06-07T12:56:27.995Z,4.28
2019-06-07T12:58:56.190Z,3.83
2019-06-07T13:01:24.923Z,4.35
2019-06-07T13:03:53.155Z,4.05
2019-06-07T13:06:21.698Z,5.12
2019-06-07T13:08:50.035Z,4.20
2019-06-07T13:11:24.241Z,3.98
2019-06-07T13:13:48.121Z,4.47
2019-06-07T13:16:16.568Z,4.25
2019-06-07T13:18:45.270Z,4.62
2019-06-07T13:21:13.484Z,4.00
2019-06-07T13:23:44.200Z,5.17
2019-06-07T13:26:11.741Z,5.00
2019-06-07T13:28:39.979Z,4.00
2019-06-07T13:31:08.168Z,4.20
2019-06-07T13:33:38.751Z,4.72
2019-06-07T13:36:06.305Z,6.72
2019-06-07T13:38:34.538Z,3.85
2019-06-07T13:41:02.738Z,4.10
2019-06-07T13:43:30.963Z,4.12
2019-06-07T13:45:59.145Z,3.95
2019-06-07T13:48:27.975Z,4.45
2019-06-07T13:50:56.323Z,4.00
2019-06-07T13:53:25.029Z,3.90
2019-06-07T13:55:53.401Z,4.10
2019-06-07T13:58:22.631Z,4.12
2019-06-07T14:00:51.189Z,3.75
2019-06-07T14:03:22.487Z,3.55
2019-06-07T14:05:49.282Z,7.83
2019-06-07T14:08:18.917Z,4.03
2019-06-07T14:10:47.425Z,4.30
2019-06-07T14:13:15.637Z,4.17
2019-06-07T14:15:43.808Z,3.98
2019-06-07T14:18:12.020Z,4.67
2019-06-07T14:20:40.198Z,3.83
2019-06-07T14:23:08.774Z,4.92
2019-06-07T14:25:36.968Z,3.50
2019-06-07T14:28:10.876Z,6.58
2019-06-07T14:30:35.062Z,6.53
2019-06-07T14:33:03.263Z,4.97
2019-06-07T14:35:33.565Z,3.55
2019-06-07T14:38:01.349Z,4.05
2019-06-07T14:40:30.151Z,3.00
2019-06-07T14:42:58.442Z,4.08
2019-06-07T14:45:27.726Z,3.87
2019-06-07T14:47:56.040Z,4.75
2019-06-07T14:50:24.300Z,3.65
2019-06-07T14:52:52.504Z,7.30
2019-06-07T14:55:20.690Z,4.22
2019-06-07T14:57:48.896Z,4.47
2019-06-07T15:00:18.781Z,4.05
2019-06-07T15:02:47.027Z,3.92
2019-06-07T15:05:15.246Z,4.55
2019-06-07T15:07:43.437Z,3.42
2019-06-07T15:10:12.922Z,4.90
2019-06-07T15:12:41.123Z,5.47
2019-06-07T15:15:10.491Z,3.15
2019-06-07T15:17:39.230Z,3.72
2019-06-07T15:20:07.768Z,4.12
2019-06-07T15:22:36.373Z,5.42
2019-06-07T15:25:08.570Z,3.67
2019-06-07T15:27:37.726Z,4.33
2019-06-07T15:30:10.266Z,4.00
2019-06-07T15:32:39.434Z,4.03
2019-06-07T15:35:07.883Z,3.95
2019-06-07T15:37:36.669Z,3.47
2019-06-07T15:40:05.223Z,3.90
2019-06-07T15:42:47.474Z,4.20
2019-06-07T15:45:04.953Z,3.62
2019-06-07T15:47:33.782Z,4.12
2019-06-07T15:50:02.063Z,3.75
2019-06-07T15:52:31.477Z,5.00
2019-06-07T15:54:59.788Z,4.00
2019-06-07T15:57:27.997Z,7.92
2019-06-07T15:59:56.203Z,5.03
2019-06-07T16:02:24.411Z,3.72
2019-06-07T16:04:52.630Z,4.40
2019-06-07T16:07:20.847Z,4.20
2019-06-07T16:09:49.043Z,4.75
2019-06-07T16:12:17.258Z,4.35
2019-06-07T16:14:45.452Z,5.03
2019-06-07T16:17:13.639Z,6.22
2019-06-07T16:19:46.014Z,6.33
2019-06-07T16:22:11.772Z,4.53
2019-06-07T16:24:40.012Z,4.87
2019-06-07T16:27:08.202Z,4.65
2019-06-07T16:29:36.557Z,5.25
2019-06-07T16:32:04.876Z,4.20
2019-06-07T16:34:33.240Z,3.80
2019-06-07T16:37:01.445Z,4.35
2019-06-07T16:39:29.711Z,4.35
2019-06-07T16:41:57.961Z,6.03
2019-06-07T16:44:26.143Z,5.58
2019-06-07T16:46:54.419Z,5.03
2019-06-07T16:49:22.611Z,3.70
2019-06-07T16:51:50.815Z,5.45
2019-06-07T16:54:19.007Z,3.00
2019-06-07T16:56:49.829Z,3.40
2019-06-07T16:59:17.173Z,5.13
2019-06-07T17:01:45.406Z,4.43
2019-06-07T17:04:13.707Z,3.63
2019-06-07T17:06:41.894Z,4.50
2019-06-07T17:09:10.243Z,2.97
2019-06-07T17:11:38.427Z,3.60
2019-06-07T17:14:06.611Z,3.87
2019-06-07T17:16:34.809Z,4.23
2019-06-07T17:19:02.997Z,5.60
2019-06-07T17:21:31.205Z,8.77
2019-06-07T17:23:59.390Z,4.73
2019-06-07T17:26:27.603Z,8.47
2019-06-07T17:28:55.798Z,15.20
2019-06-07T17:31:23.999Z,7.77
2019-06-07T17:33:52.275Z,5.03
2019-06-07T17:36:20.527Z,7.57
2019-06-07T17:38:48.738Z,8.90
2019-06-07T17:41:16.918Z,4.03
2019-06-07T17:43:52.987Z,5.73
2019-06-07T17:46:15.004Z,5.47
2019-06-07T17:48:43.512Z,8.27
2019-06-07T17:51:11.785Z,3.27
2019-06-07T17:53:39.968Z,4.37
2019-06-07T17:56:08.167Z,5.10
2019-06-07T17:58:36.350Z,2.10
2019-06-07T18:01:04.567Z,5.97
2019-06-07T18:03:33.242Z,1.30
2019-06-07T18:06:02.667Z,4.90
2019-06-07T18:08:31.042Z,3.67
2019-06-07T18:10:59.227Z,2.17
2019-06-07T18:13:27.522Z,1.30
2019-06-07T18:15:59.401Z,2.03
2019-06-07T18:18:25.674Z,4.10
2019-06-07T18:20:55.500Z,2.10
2019-06-07T18:23:23.831Z,10.97
2019-06-07T18:25:52.564Z,4.83
2019-06-07T18:28:20.798Z,0.80
2019-06-07T18:30:48.999Z,1.20
2019-06-07T18:33:17.188Z,3.23
2019-06-07T18:35:46.875Z,2.97
2019-06-07T18:38:15.275Z,1.97
2019-06-07T18:40:43.455Z,6.53
2019-06-07T18:43:11.650Z,0.77
2019-06-07T18:45:39.851Z,1.67
2019-06-07T18:48:08.215Z,1.77
2019-06-07T18:50:36.546Z,1.90
2019-06-07T18:53:04.720Z,1.50
2019-06-07T18:55:32.924Z,1.03
2019-06-07T18:58:01.118Z,1.97
2019-06-07T19:00:29.582Z,3.90
2019-06-07T19:02:58.197Z,6.83
2019-06-07T19:05:26.817Z,4.37
2019-06-07T19:07:55.000Z,1.20
2019-06-07T19:10:23.676Z,1.10
2019-06-07T19:12:53.056Z,1.37
2019-06-07T19:15:22.107Z,2.53
2019-06-07T19:17:50.301Z,2.40
2019-06-07T19:20:18.751Z,2.53
2019-06-07T19:22:46.958Z,1.03
2019-06-07T19:25:15.511Z,1.63
2019-06-07T19:27:43.710Z,2.30
2019-06-07T19:30:12.874Z,1.10
2019-06-07T19:32:41.082Z,1.13
2019-06-07T19:35:09.435Z,2.97
2019-06-07T19:37:37.686Z,5.10
2019-06-07T19:40:06.426Z,1.50
2019-06-07T19:42:34.615Z,1.47
2019-06-07T19:45:26.994Z,2.20
2019-06-07T19:47:32.802Z,3.30
2019-06-07T19:50:01.036Z,1.40
2019-06-07T19:52:29.342Z,1.10
2019-06-07T19:54:57.742Z,1.77
2019-06-07T19:57:26.009Z,1.10
2019-06-07T19:59:55.239Z,1.10
2019-06-07T20:02:23.779Z,2.20
2019-06-07T20:04:51.966Z,1.80
2019-06-07T20:07:20.150Z,2.83
2019-06-07T20:09:48.352Z,0.80
2019-06-07T20:12:16.533Z,1.30
2019-06-07T20:14:44.937Z,1.43
2019-06-07T20:17:13.133Z,1.00
2019-06-07T20:19:41.331Z,1.67
2019-06-07T20:22:09.635Z,3.17
2019-06-07T20:24:38.222Z,1.10
2019-06-07T20:27:06.560Z,2.03
2019-06-07T20:29:34.747Z,0.90
2019-06-07T20:32:02.961Z,0.97
2019-06-07T20:34:31.139Z,2.70
2019-06-07T20:37:00.215Z,2.07
2019-06-07T20:39:28.594Z,1.67
2019-06-07T20:41:57.161Z,1.17
2019-06-07T20:44:25.564Z,1.80
2019-06-07T20:46:53.807Z,1.13
2019-06-07T20:49:22.021Z,1.40
2019-06-07T20:51:50.212Z,1.13
2019-06-07T20:54:18.421Z,1.23
2019-06-07T20:56:46.600Z,1.60
2019-06-07T20:59:14.784Z,1.23
2019-06-07T21:01:42.997Z,2.10
2019-06-07T21:04:11.267Z,1.33
2019-06-07T21:06:39.776Z,0.80
2019-06-07T21:09:08.039Z,2.27
2019-06-07T21:11:36.234Z,2.43
2019-06-07T21:14:06.102Z,3.03
2019-06-07T21:16:34.478Z,5.60
2019-06-07T21:19:02.665Z,3.50
2019-06-07T21:21:30.871Z,1.40
2019-06-07T21:23:59.063Z,1.43
2019-06-07T21:26:27.269Z,2.07
2019-06-07T21:28:55.442Z,2.53
2019-06-07T21:31:23.639Z,2.50
2019-06-07T21:33:51.831Z,1.40
2019-06-07T21:36:20.017Z,2.33
2019-06-07T21:38:48.211Z,1.13
2019-06-07T21:41:16.399Z,1.20
2019-06-07T21:43:44.610Z,1.90
2019-06-07T21:46:19.614Z,2.03
2019-06-07T21:48:42.839Z,5.07
2019-06-07T21:51:11.032Z,2.20
2019-06-07T21:53:39.363Z,2.27
2019-06-07T21:56:08.890Z,3.67
2019-06-07T21:58:37.330Z,1.17
2019-06-07T22:01:10.069Z,2.03
2019-06-07T22:03:39.758Z,2.50
2019-06-07T22:06:07.963Z,1.10
2019-06-07T22:08:36.151Z,1.63
2019-06-07T22:11:05.951Z,1.53
2019-06-07T22:13:34.326Z,1.47
2019-06-07T22:16:02.518Z,3.37
2019-06-07T22:18:30.734Z,2.23
2019-06-07T22:20:59.296Z,1.40
2019-06-07T22:23:27.564Z,1.30
2019-06-07T22:25:55.832Z,2.23
2019-06-07T22:28:24.432Z,2.30
2019-06-07T22:30:52.658Z,1.60
2019-06-07T22:33:20.851Z,2.50
2019-06-07T22:35:49.036Z,2.77
2019-06-07T22:38:18.265Z,2.23
2019-06-07T22:40:46.713Z,3.37
2019-06-07T22:43:16.006Z,1.50
2019-06-07T22:45:44.565Z,2.03
2019-06-07T22:48:13.429Z,2.00
2019-06-07T22:50:41.729Z,2.40
2019-06-07T22:53:09.911Z,1.40
2019-06-07T22:55:38.681Z,3.30
2019-06-07T22:58:08.047Z,1.60
2019-06-07T23:00:37.783Z,2.07
2019-06-07T23:03:05.962Z,2.67
2019-06-07T23:05:34.210Z,3.07
2019-06-07T23:08:02.419Z,2.90
2019-06-07T23:10:30.623Z,2.97
2019-06-07T23:12:58.852Z,1.17
2019-06-07T23:15:27.070Z,3.20
2019-06-07T23:17:55.263Z,1.20
2019-06-07T23:20:23.625Z,1.97
2019-06-07T23:22:51.985Z,2.33
2019-06-07T23:25:23.939Z,3.10
2019-06-07T23:27:50.066Z,3.20
2019-06-07T23:30:21.436Z,3.13
2019-06-07T23:32:49.525Z,1.67
2019-06-07T23:35:19.071Z,1.40
2019-06-07T23:37:47.360Z,1.80
2019-06-07T23:40:17.243Z,1.80
2019-06-07T23:42:45.614Z,1.90
2019-06-07T23:45:14.215Z,2.90
2019-06-07T23:47:43.754Z,2.77
2019-06-07T23:50:13.553Z,2.23
2019-06-07T23:52:41.875Z,4.43
2019-06-07T23:55:11.665Z,2.70
2019-06-07T23:57:40.048Z,4.13
